createdAt,value
2023-02-01T00:02:15.525Z,99.84
2023-02-01T00:04:45.433Z,99.91
2023-02-01T00:07:15.273Z,99.84
2023-02-01T00:09:45.080Z,99.90
2023-02-01T00:12:17.454Z,100.00
2023-02-01T00:14:47.188Z,100.00
2023-02-01T00:17:16.949Z,99.99
2023-02-01T00:19:46.703Z,100.00
2023-02-01T00:22:16.481Z,100.00
2023-02-01T00:24:46.240Z,99.99
2023-02-01T00:27:21.376Z,100.00
2023-02-01T00:29:51.567Z,100.00
2023-02-01T00:32:21.358Z,99.96
2023-02-01T00:34:51.151Z,100.00
2023-02-01T00:37:20.976Z,100.00
2023-02-01T00:39:51.426Z,99.94
2023-02-01T00:42:23.793Z,99.95
2023-02-01T00:44:53.548Z,99.97
2023-02-01T00:47:23.323Z,100.00
2023-02-01T00:49:53.123Z,99.95
2023-02-01T00:52:22.899Z,99.87
2023-02-01T00:54:52.707Z,99.96
2023-02-01T00:57:25.095Z,99.81
2023-02-01T00:59:54.928Z,99.82
2023-02-01T01:02:24.708Z,99.78
2023-02-01T01:04:54.600Z,99.86
2023-02-01T01:07:24.385Z,99.88
2023-02-01T01:09:54.154Z,99.84
2023-02-01T01:12:26.535Z,99.87
2023-02-01T01:14:56.310Z,99.88
2023-02-01T01:17:26.100Z,99.91
2023-02-01T01:19:57.218Z,99.87
2023-02-01T01:22:28.780Z,99.89
2023-02-01T01:24:58.544Z,99.89
2023-02-01T01:27:30.931Z,100.00
2023-02-01T01:30:00.715Z,99.86
2023-02-01T01:32:30.476Z,99.91
2023-02-01T01:35:00.259Z,100.00
2023-02-01T01:37:30.067Z,100.00
2023-02-01T01:40:01.325Z,100.00
2023-02-01T01:42:33.799Z,100.00
2023-02-01T01:45:07.329Z,100.00
2023-02-01T01:47:40.984Z,100.00
2023-02-01T01:50:14.058Z,100.00
2023-02-01T01:52:48.365Z,100.00
2023-02-01T01:55:20.803Z,100.00
2023-02-01T01:57:59.439Z,100.00
2023-02-01T02:00:29.598Z,100.00
2023-02-01T02:03:04.861Z,100.00
2023-02-01T02:05:34.798Z,100.00
2023-02-01T02:08:04.926Z,100.00
2023-02-01T02:10:48.056Z,100.00
2023-02-01T02:13:21.842Z,100.00
2023-02-01T02:16:05.833Z,100.00
2023-02-01T02:18:42.756Z,100.00
2023-02-01T02:21:21.575Z,100.00
2023-02-01T02:24:18.134Z,100.00
2023-02-01T02:27:28.126Z,100.00
2023-02-01T02:30:35.424Z,100.00
2023-02-01T02:33:37.555Z,100.00
2023-02-01T02:36:14.068Z,100.00
2023-02-01T02:38:53.322Z,100.00
2023-02-01T02:41:42.211Z,100.00
2023-02-01T02:44:30.322Z,100.00
2023-02-01T02:47:20.092Z,100.00
2023-02-01T02:50:08.991Z,100.00
2023-02-01T02:52:56.259Z,100.00
2023-02-01T02:55:27.241Z,100.00
2023-02-01T02:58:11.337Z,100.00
2023-02-01T03:00:54.770Z,100.00
2023-02-01T03:03:37.027Z,100.00
2023-02-01T03:06:17.747Z,100.00
2023-02-01T03:08:47.625Z,100.00
2023-02-01T03:11:19.590Z,100.00
2023-02-01T03:13:52.676Z,100.00
2023-02-01T03:16:27.567Z,100.00
2023-02-01T03:19:01.819Z,100.00
2023-02-01T03:21:39.383Z,100.00
2023-02-01T03:24:14.607Z,100.00
2023-02-01T03:26:50.256Z,100.00
2023-02-01T03:29:25.397Z,100.00
2023-02-01T03:31:55.269Z,100.00
2023-02-01T03:34:25.763Z,100.00
2023-02-01T03:37:04.385Z,100.00
2023-02-01T03:39:38.667Z,100.00
2023-02-01T03:42:13.529Z,100.00
2023-02-01T03:44:49.377Z,100.00
2023-02-01T03:47:23.760Z,100.00
2023-02-01T03:49:58.769Z,100.00
2023-02-01T03:52:35.807Z,100.00
2023-02-01T03:55:06.184Z,100.00
2023-02-01T03:57:38.691Z,100.00
2023-02-01T04:00:12.860Z,100.00
2023-02-01T04:02:42.714Z,100.00
2023-02-01T04:05:13.120Z,100.00
2023-02-01T04:07:45.533Z,100.00
2023-02-01T04:10:19.312Z,100.00
2023-02-01T04:12:49.504Z,100.00
2023-02-01T04:15:19.443Z,100.00
2023-02-01T04:17:49.241Z,100.00
2023-02-01T04:20:19.719Z,100.00
2023-02-01T04:22:52.261Z,100.00
2023-02-01T04:25:22.091Z,100.00
2023-02-01T04:27:51.895Z,100.00
2023-02-01T04:30:22.239Z,100.00
2023-02-01T04:32:52.292Z,100.00
2023-02-01T04:35:23.089Z,100.00
2023-02-01T04:37:55.532Z,100.00
2023-02-01T04:40:25.628Z,100.00
2023-02-01T04:42:55.606Z,100.00
2023-02-01T04:45:25.375Z,100.00
2023-02-01T04:47:55.165Z,100.00
2023-02-01T04:50:25.333Z,100.00
2023-02-01T04:52:57.771Z,100.00
2023-02-01T04:55:27.554Z,100.00
2023-02-01T04:57:57.780Z,100.00
2023-02-01T05:00:27.669Z,100.00
2023-02-01T05:02:57.664Z,100.00
2023-02-01T05:05:27.500Z,100.00
2023-02-01T05:08:00.214Z,100.00
2023-02-01T05:10:30.049Z,100.00
2023-02-01T05:13:12.331Z,100.00
2023-02-01T05:15:42.159Z,100.00
2023-02-01T05:18:12.383Z,100.00
2023-02-01T05:20:42.290Z,100.00
2023-02-01T05:23:14.788Z,100.00
2023-02-01T05:25:44.613Z,100.00
2023-02-01T05:28:14.427Z,100.00
2023-02-01T05:30:44.356Z,100.00
2023-02-01T05:33:14.203Z,100.00
2023-02-01T05:35:44.122Z,100.00
2023-02-01T05:38:16.614Z,100.00
2023-02-01T05:40:50.703Z,100.00
2023-02-01T05:43:20.547Z,100.00
2023-02-01T05:45:50.309Z,100.00
2023-02-01T05:48:20.163Z,100.00
2023-02-01T05:50:49.969Z,100.00
2023-02-01T05:53:22.511Z,100.00
2023-02-01T05:55:52.312Z,100.00
2023-02-01T05:58:22.081Z,100.00
2023-02-01T06:00:51.863Z,100.00
2023-02-01T06:03:21.772Z,100.00
2023-02-01T06:05:52.116Z,100.00
2023-02-01T06:08:25.913Z,100.00
2023-02-01T06:11:01.598Z,100.00
2023-02-01T06:13:34.179Z,100.00
2023-02-01T06:16:05.954Z,100.00
2023-02-01T06:18:35.776Z,100.00
2023-02-01T06:21:06.242Z,100.00
2023-02-01T06:23:38.691Z,100.00
2023-02-01T06:26:11.509Z,100.00
2023-02-01T06:28:41.275Z,100.00
2023-02-01T06:31:11.376Z,100.00
2023-02-01T06:33:41.632Z,100.00
2023-02-01T06:36:16.430Z,100.00
2023-02-01T06:38:48.810Z,100.00
2023-02-01T06:41:18.828Z,100.00
2023-02-01T06:43:48.894Z,100.00
2023-02-01T06:46:19.075Z,100.00
2023-02-01T06:48:50.450Z,100.00
2023-02-01T06:51:26.279Z,100.00
2023-02-01T06:53:58.671Z,100.00
2023-02-01T06:56:28.740Z,100.00
2023-02-01T06:58:58.663Z,100.00
2023-02-01T07:01:28.453Z,100.00
2023-02-01T07:03:58.214Z,100.00
2023-02-01T07:06:28.251Z,100.00
2023-02-01T07:09:01.645Z,100.00
2023-02-01T07:11:31.777Z,100.00
2023-02-01T07:14:01.985Z,100.00
2023-02-01T07:16:32.376Z,100.00
2023-02-01T07:19:02.794Z,100.00
2023-02-01T07:21:32.587Z,100.00
2023-02-01T07:24:05.017Z,100.00
2023-02-01T07:26:34.844Z,100.00
2023-02-01T07:29:04.661Z,100.00
2023-02-01T07:31:34.430Z,100.00
2023-02-01T07:34:04.231Z,100.00
2023-02-01T07:36:35.472Z,100.00
2023-02-01T07:39:08.129Z,100.00
2023-02-01T07:41:37.935Z,100.00
2023-02-01T07:44:08.072Z,100.00
2023-02-01T07:46:37.879Z,100.00
2023-02-01T07:49:07.663Z,100.00
2023-02-01T07:51:37.444Z,100.00
2023-02-01T07:54:09.987Z,100.00
2023-02-01T07:56:39.759Z,100.00
2023-02-01T07:59:09.522Z,100.00
2023-02-01T08:01:39.367Z,100.00
2023-02-01T08:04:09.170Z,100.00
2023-02-01T08:06:39.007Z,100.00
2023-02-01T08:09:12.030Z,100.00
2023-02-01T08:11:41.983Z,100.00
2023-02-01T08:14:11.808Z,100.00
2023-02-01T08:16:41.675Z,100.00
2023-02-01T08:19:11.501Z,100.00
2023-02-01T08:21:41.302Z,100.00
2023-02-01T08:24:14.481Z,100.00
2023-02-01T08:26:44.286Z,100.00
2023-02-01T08:29:14.991Z,100.00
2023-02-01T08:31:44.907Z,100.00
2023-02-01T08:34:14.699Z,100.00
2023-02-01T08:36:44.745Z,100.00
2023-02-01T08:39:17.269Z,100.00
2023-02-01T08:42:07.075Z,100.00
2023-02-01T08:44:37.982Z,100.00
2023-02-01T08:47:07.855Z,100.00
2023-02-01T08:49:37.636Z,100.00
2023-02-01T08:52:15.688Z,100.00
2023-02-01T08:54:48.655Z,100.00
2023-02-01T08:57:18.672Z,100.00
2023-02-01T08:59:48.512Z,100.00
2023-02-01T09:02:19.781Z,100.00
2023-02-01T09:04:49.600Z,100.00
2023-02-01T09:07:19.416Z,100.00
2023-02-01T09:09:51.931Z,100.00
2023-02-01T09:12:21.795Z,100.00
2023-02-01T09:14:51.649Z,100.00
2023-02-01T09:17:21.470Z,100.00
2023-02-01T09:19:51.280Z,100.00
2023-02-01T09:22:21.244Z,100.00
2023-02-01T09:24:55.114Z,100.00
2023-02-01T09:27:25.743Z,100.00
2023-02-01T09:29:56.272Z,100.00
2023-02-01T09:32:27.085Z,100.00
2023-02-01T09:34:57.769Z,100.00
2023-02-01T09:37:27.561Z,100.00
2023-02-01T09:39:59.962Z,100.00
2023-02-01T09:42:49.174Z,100.00
2023-02-01T09:45:25.790Z,100.00
2023-02-01T09:47:59.607Z,100.00
2023-02-01T09:50:38.468Z,100.00
2023-02-01T09:53:16.014Z,100.00
2023-02-01T09:55:51.211Z,100.00
2023-02-01T09:58:26.722Z,100.00
2023-02-01T10:00:58.622Z,100.00
2023-02-01T10:03:32.464Z,100.00
2023-02-01T10:06:20.421Z,100.00
2023-02-01T10:09:08.299Z,100.00
2023-02-01T10:11:55.620Z,100.00
2023-02-01T10:14:44.199Z,100.00
2023-02-01T10:17:24.112Z,100.00
2023-02-01T10:20:01.973Z,100.00
2023-02-01T10:23:10.273Z,100.00
2023-02-01T10:25:39.621Z,100.00
2023-02-01T10:28:19.878Z,100.00
2023-02-01T10:30:51.710Z,100.00
2023-02-01T10:33:25.922Z,100.00
2023-02-01T10:35:59.495Z,100.00
2023-02-01T10:38:31.811Z,100.00
2023-02-01T10:41:06.891Z,100.00
2023-02-01T10:43:40.377Z,100.00
2023-02-01T10:46:11.943Z,100.00
2023-02-01T10:48:42.749Z,100.00
2023-02-01T10:51:19.850Z,100.00
2023-02-01T10:53:56.837Z,100.00
2023-02-01T10:56:29.753Z,100.00
2023-02-01T10:59:08.526Z,100.00
2023-02-01T11:01:43.100Z,100.00
2023-02-01T11:04:15.008Z,100.00
2023-02-01T11:06:47.979Z,100.00
2023-02-01T11:09:25.006Z,100.00
2023-02-01T11:12:01.258Z,100.00
2023-02-01T11:14:41.928Z,100.00
2023-02-01T11:17:29.451Z,100.00
2023-02-01T11:20:03.974Z,100.00
2023-02-01T11:22:33.997Z,100.00
2023-02-01T11:25:11.516Z,100.00
2023-02-01T11:27:53.126Z,100.00
2023-02-01T11:30:36.811Z,100.00
2023-02-01T11:33:09.204Z,100.00
2023-02-01T11:35:42.771Z,100.00
2023-02-01T11:38:24.524Z,100.00
2023-02-01T11:40:54.485Z,100.00
2023-02-01T11:43:28.613Z,100.00
2023-02-01T11:46:03.199Z,100.00
2023-02-01T11:48:34.941Z,100.00
2023-02-01T11:51:28.688Z,100.00
2023-02-01T11:54:14.527Z,100.00
2023-02-01T11:56:51.822Z,100.00
2023-02-01T11:59:40.975Z,100.00
2023-02-01T12:02:46.763Z,100.00
2023-02-01T12:05:35.684Z,100.00
2023-02-01T12:08:26.680Z,100.00
2023-02-01T12:11:11.762Z,100.00
2023-02-01T12:13:56.134Z,100.00
2023-02-01T12:16:35.680Z,100.00
2023-02-01T12:19:27.520Z,100.00
2023-02-01T12:22:08.135Z,100.00
2023-02-01T12:25:16.206Z,100.00
2023-02-01T12:28:07.232Z,100.00
2023-02-01T12:30:52.045Z,100.00
2023-02-01T12:33:33.038Z,100.00
2023-02-01T12:36:19.975Z,100.00
2023-02-01T12:38:57.634Z,100.00
2023-02-01T12:41:46.965Z,100.00
2023-02-01T12:44:38.821Z,100.00
2023-02-01T12:47:15.766Z,100.00
2023-02-01T12:49:52.922Z,100.00
2023-02-01T12:52:34.541Z,100.00
2023-02-01T12:55:11.308Z,100.00
2023-02-01T12:57:45.403Z,100.00
2023-02-01T13:00:24.929Z,100.00
2023-02-01T13:03:06.258Z,100.00
2023-02-01T13:05:48.132Z,100.00
2023-02-01T13:08:26.513Z,100.00
2023-02-01T13:11:04.707Z,100.00
2023-02-01T13:13:41.570Z,100.00
2023-02-01T13:16:19.397Z,100.00
2023-02-01T13:18:54.191Z,100.00
2023-02-01T13:21:28.185Z,100.00
2023-02-01T13:24:01.859Z,100.00
2023-02-01T13:26:31.709Z,100.00
2023-02-01T13:29:05.625Z,100.00
2023-02-01T13:32:05.277Z,100.00
2023-02-01T13:35:07.364Z,100.00
2023-02-01T13:38:00.383Z,100.00
2023-02-01T13:40:45.843Z,100.00
2023-02-01T13:43:20.200Z,100.00
2023-02-01T13:45:53.464Z,100.00
2023-02-01T13:48:28.105Z,100.00
2023-02-01T13:51:00.322Z,100.00
2023-02-01T13:53:34.533Z,100.00
2023-02-01T13:56:12.801Z,100.00
2023-02-01T13:58:44.923Z,100.00
2023-02-01T14:01:38.068Z,100.00
2023-02-01T14:04:10.568Z,100.00
2023-02-01T14:06:46.475Z,100.00
2023-02-01T14:09:38.254Z,100.00
2023-02-01T14:12:37.959Z,100.00
2023-02-01T14:15:29.750Z,100.00
2023-02-01T14:17:59.950Z,100.00
2023-02-01T14:20:57.174Z,100.00
2023-02-01T14:23:29.286Z,100.00
2023-02-01T14:26:24.639Z,100.00
2023-02-01T14:29:02.450Z,100.00
2023-02-01T14:32:00.721Z,100.00
2023-02-01T14:34:44.182Z,100.00
2023-02-01T14:37:27.290Z,100.00
2023-02-01T14:40:02.172Z,100.00
2023-02-01T14:42:42.689Z,100.00
2023-02-01T14:45:54.808Z,100.00
2023-02-01T14:48:52.015Z,100.00
2023-02-01T14:51:23.119Z,100.00
2023-02-01T14:53:54.510Z,100.00
2023-02-01T14:56:25.766Z,100.00
2023-02-01T14:59:01.061Z,100.00
2023-02-01T15:01:32.807Z,100.00
2023-02-01T15:04:09.255Z,100.00
2023-02-01T15:06:42.546Z,100.00
2023-02-01T15:09:15.974Z,100.00
2023-02-01T15:12:00.176Z,100.00
2023-02-01T15:14:31.300Z,100.00
2023-02-01T15:17:01.143Z,100.00
2023-02-01T15:19:34.449Z,100.00
2023-02-01T15:22:04.744Z,100.00
2023-02-01T15:24:35.587Z,100.00
2023-02-01T15:27:09.567Z,100.00
2023-02-01T15:29:39.560Z,100.00
2023-02-01T15:32:09.419Z,100.00
2023-02-01T15:34:52.107Z,100.00
2023-02-01T15:37:24.738Z,100.00
2023-02-01T15:40:23.347Z,100.00
2023-02-01T15:42:57.495Z,100.00
2023-02-01T15:45:31.329Z,100.00
2023-02-01T15:48:02.910Z,100.00
2023-02-01T15:50:36.060Z,100.00
2023-02-01T15:53:06.686Z,100.00
2023-02-01T15:55:42.986Z,100.00
2023-02-01T15:58:21.834Z,100.00
2023-02-01T16:00:54.453Z,100.00
2023-02-01T16:03:37.951Z,100.00
2023-02-01T16:06:13.131Z,100.00
2023-02-01T16:08:55.002Z,100.00
2023-02-01T16:11:31.689Z,100.00
2023-02-01T16:14:02.003Z,100.00
2023-02-01T16:16:33.217Z,100.00
2023-02-01T16:19:03.075Z,100.00
2023-02-01T16:21:35.475Z,100.00
2023-02-01T16:24:06.923Z,100.00
2023-02-01T16:26:38.624Z,100.00
2023-02-01T16:29:09.787Z,100.00
2023-02-01T16:31:42.817Z,100.00
2023-02-01T16:34:18.119Z,100.00
2023-02-01T16:36:53.113Z,100.00
2023-02-01T16:39:23.663Z,100.00
2023-02-01T16:41:53.920Z,100.00
2023-02-01T16:44:23.733Z,100.00
2023-02-01T16:46:53.541Z,100.00
2023-02-01T16:49:25.141Z,100.00
2023-02-01T16:52:01.709Z,100.00
2023-02-01T16:54:31.521Z,100.00
2023-02-01T16:57:01.325Z,100.00
2023-02-01T16:59:31.206Z,100.00
2023-02-01T17:02:00.987Z,100.00
2023-02-01T17:04:30.893Z,100.00
2023-02-01T17:07:09.556Z,100.00
2023-02-01T17:09:39.876Z,100.00
2023-02-01T17:12:10.303Z,100.00
2023-02-01T17:14:43.288Z,100.00
2023-02-01T17:17:13.780Z,100.00
2023-02-01T17:19:44.016Z,99.93
2023-02-01T17:22:16.649Z,99.88
2023-02-01T17:24:48.764Z,99.83
2023-02-01T17:27:19.496Z,99.70
2023-02-01T17:29:49.319Z,99.59
2023-02-01T17:32:21.507Z,99.43
2023-02-01T17:34:52.052Z,99.34
2023-02-01T17:37:27.922Z,99.20
2023-02-01T17:39:58.033Z,99.13
2023-02-01T17:42:29.040Z,99.09
2023-02-01T17:45:00.921Z,98.97
2023-02-01T17:47:30.830Z,98.90
2023-02-01T17:50:00.609Z,98.73
2023-02-01T17:52:33.017Z,98.66
2023-02-01T17:55:04.848Z,98.58
2023-02-01T17:57:34.647Z,98.41
2023-02-01T18:00:04.569Z,98.37
2023-02-01T18:02:34.425Z,98.16
2023-02-01T18:05:05.093Z,98.10
2023-02-01T18:07:37.456Z,97.88
2023-02-01T18:10:07.867Z,97.74
2023-02-01T18:12:38.934Z,97.72
2023-02-01T18:15:30.647Z,97.59
2023-02-01T18:18:00.843Z,97.48
2023-02-01T18:20:31.230Z,97.45
2023-02-01T18:23:04.106Z,97.28
2023-02-01T18:25:38.829Z,97.16
2023-02-01T18:28:08.620Z,97.11
2023-02-01T18:30:38.669Z,97.09
2023-02-01T18:33:08.553Z,96.93
2023-02-01T18:35:38.320Z,96.83
2023-02-01T18:38:11.301Z,96.84
2023-02-01T18:40:46.512Z,96.73
2023-02-01T18:43:16.964Z,96.70
2023-02-01T18:45:48.352Z,96.74
2023-02-01T18:48:21.423Z,96.68
2023-02-01T18:50:52.195Z,96.64
2023-02-01T18:53:27.290Z,96.58
2023-02-01T18:55:57.350Z,96.54
2023-02-01T18:58:28.244Z,96.56
2023-02-01T19:00:59.901Z,96.66
2023-02-01T19:03:31.057Z,96.56
2023-02-01T19:06:01.601Z,96.56
2023-02-01T19:08:34.100Z,96.58
2023-02-01T19:11:09.400Z,96.53
2023-02-01T19:13:39.355Z,96.61
2023-02-01T19:16:10.184Z,96.55
2023-02-01T19:18:40.987Z,96.48
2023-02-01T19:21:13.479Z,96.70
2023-02-01T19:23:45.972Z,96.61
2023-02-01T19:26:16.680Z,96.53
2023-02-01T19:28:49.096Z,96.61
2023-02-01T19:31:20.611Z,96.67
2023-02-01T19:33:50.500Z,96.65
2023-02-01T19:36:20.318Z,96.49
2023-02-01T19:38:52.745Z,96.43
2023-02-01T19:41:22.883Z,96.60
2023-02-01T19:43:52.830Z,96.52
2023-02-01T19:46:22.715Z,96.47
2023-02-01T19:48:52.552Z,96.26
2023-02-01T19:51:22.335Z,96.24
2023-02-01T19:53:54.805Z,96.14
2023-02-01T19:56:24.574Z,96.03
2023-02-01T19:58:57.933Z,96.04
2023-02-01T20:01:26.950Z,95.95
2023-02-01T20:04:01.726Z,95.77
2023-02-01T20:06:32.553Z,95.88
2023-02-01T20:09:05.041Z,95.75
2023-02-01T20:11:35.050Z,95.63
2023-02-01T20:14:04.884Z,95.54
2023-02-01T20:16:34.998Z,95.52
2023-02-01T20:19:05.211Z,95.58
2023-02-01T20:21:35.524Z,95.44
2023-02-01T20:24:09.001Z,95.50
2023-02-01T20:26:39.888Z,95.44
2023-02-01T20:29:10.483Z,95.52
2023-02-01T20:31:40.415Z,95.52
2023-02-01T20:34:10.566Z,95.52
2023-02-01T20:36:40.725Z,95.35
2023-02-01T20:39:13.491Z,95.46
2023-02-01T20:41:43.822Z,95.36
2023-02-01T20:44:13.892Z,95.30
2023-02-01T20:46:43.822Z,95.26
2023-02-01T20:49:13.768Z,95.27
2023-02-01T20:51:43.692Z,95.24
2023-02-01T20:54:16.236Z,95.28
2023-02-01T20:56:47.690Z,95.15
2023-02-01T20:59:17.565Z,95.17
2023-02-01T21:01:54.678Z,95.13
2023-02-01T21:04:27.659Z,94.99
2023-02-01T21:06:58.969Z,94.91
2023-02-01T21:09:40.236Z,94.86
2023-02-01T21:12:10.378Z,94.74
2023-02-01T21:14:40.216Z,94.57
2023-02-01T21:17:10.054Z,94.35
2023-02-01T21:19:45.631Z,94.32
2023-02-01T21:22:17.235Z,94.18
2023-02-01T21:24:50.068Z,94.17
2023-02-01T21:27:21.225Z,93.81
2023-02-01T21:29:51.102Z,93.76
2023-02-01T21:32:21.035Z,93.58
2023-02-01T21:34:50.888Z,93.68
2023-02-01T21:37:25.797Z,93.53
2023-02-01T21:39:59.082Z,93.45
2023-02-01T21:42:30.759Z,93.40
2023-02-01T21:45:02.462Z,93.40
2023-02-01T21:47:32.306Z,93.22
2023-02-01T21:50:03.831Z,93.38
2023-02-01T21:52:34.075Z,93.25
2023-02-01T21:55:07.469Z,93.22
2023-02-01T21:57:37.939Z,93.32
2023-02-01T22:00:09.329Z,93.23
2023-02-01T22:02:39.372Z,93.29
2023-02-01T22:05:11.333Z,93.28
2023-02-01T22:07:41.390Z,93.24
2023-02-01T22:10:15.619Z,93.30
2023-02-01T22:12:45.509Z,93.18
2023-02-01T22:15:15.527Z,93.15
2023-02-01T22:17:45.431Z,93.23
2023-02-01T22:20:15.785Z,93.24
2023-02-01T22:22:45.700Z,93.21
2023-02-01T22:25:18.426Z,93.07
2023-02-01T22:28:32.442Z,93.19
2023-02-01T22:30:38.177Z,93.05
2023-02-01T22:33:08.188Z,93.12
2023-02-01T22:35:41.058Z,93.07
2023-02-01T22:38:10.916Z,93.03
2023-02-01T22:40:43.414Z,92.86
2023-02-01T22:43:13.872Z,92.94
2023-02-01T22:45:43.743Z,92.95
2023-02-01T22:48:13.678Z,92.84
2023-02-01T22:50:43.577Z,92.75
2023-02-01T22:53:13.535Z,92.78
2023-02-01T22:55:45.967Z,92.56
2023-02-01T22:58:15.831Z,92.77
2023-02-01T23:00:45.800Z,92.60
2023-02-01T23:03:15.792Z,92.61
2023-02-01T23:05:45.691Z,92.61
2023-02-01T23:08:15.630Z,92.54
2023-02-01T23:10:48.590Z,92.57
2023-02-01T23:13:18.370Z,92.55
2023-02-01T23:15:48.147Z,92.61
2023-02-01T23:18:17.955Z,92.49
2023-02-01T23:20:47.805Z,92.60
2023-02-01T23:23:17.551Z,92.54
2023-02-01T23:25:55.114Z,92.61
2023-02-01T23:28:24.873Z,92.47
2023-02-01T23:30:54.923Z,92.53
2023-02-01T23:33:26.082Z,92.69
2023-02-01T23:35:58.410Z,92.82
2023-02-01T23:38:29.035Z,92.70
2023-02-01T23:41:08.594Z,92.88
2023-02-01T23:43:50.779Z,92.90
2023-02-01T23:46:21.229Z,93.08
2023-02-01T23:48:52.385Z,93.01
2023-02-01T23:51:23.302Z,93.13
2023-02-01T23:53:53.389Z,93.26
2023-02-01T23:56:28.306Z,93.36
2023-02-01T23:58:58.233Z,93.52
